Time;durP1;ratioP1;P1;durP2;ratioP2;P2;SDS_P1;SDS_P2;PMS_P1;PMS_P2;Temp;Humidity;BMP_temperature;BMP_pressure;BME280_temperature;BME280_humidity;BME280_pressure;Samples;Min_cycle;Max_cycle;Signal;HPM_P1;HPM_P2
2023/03/13 00:01:15;;;;;;;11.05;3.40;;;6.40;90.20;;;;;;5070165;28;20480;-67
2023/03/13 00:03:49;;;;;;;17.33;4.03;;;6.30;90.20;;;;;;5068566;28;20127;-68
2023/03/13 00:09:33;;;;;;;11.32;3.97;;;6.30;90.10;;;;;;5071508;28;20079;-69
2023/03/13 00:12:06;;;;;;;13.43;3.92;;;6.40;90.10;;;;;;5049597;28;20372;-71
2023/03/13 00:14:40;;;;;;;11.73;3.50;;;6.40;90.30;;;;;;5074695;28;20044;-71
2023/03/13 00:17:13;;;;;;;11.45;3.70;;;6.40;90.30;;;;;;5074975;28;20680;-62
2023/03/13 00:19:54;;;;;;;12.60;3.92;;;6.40;90.30;;;;;;5072016;28;20425;-61
2023/03/13 00:22:34;;;;;;;11.90;3.78;;;6.40;90.20;;;;;;5070850;28;20523;-67
2023/03/13 00:25:10;;;;;;;13.60;4.70;;;6.40;90.20;;;;;;5075849;28;20036;-67
2023/03/13 00:27:43;;;;;;;10.27;4.05;;;6.40;90.20;;;;;;5078208;28;20048;-67
2023/03/13 00:30:16;;;;;;;12.85;3.95;;;6.40;90.30;;;;;;5078377;28;20037;-68
2023/03/13 00:32:50;;;;;;;9.38;4.38;;;6.40;90.40;;;;;;5076183;28;20139;-67
2023/03/13 00:35:23;;;;;;;13.27;4.28;;;6.40;90.30;;;;;;5055713;28;20129;-60
2023/03/13 00:37:56;;;;;;;11.93;4.57;;;6.40;90.40;;;;;;5051801;28;20127;-59
2023/03/13 00:40:24;;;;;;;14.98;4.70;;;6.40;90.30;;;;;;5068477;28;20053;-61
2023/03/13 00:42:58;;;;;;;13.50;4.13;;;6.50;90.40;;;;;;5065920;28;20116;-61
2023/03/13 00:45:33;;;;;;;12.95;3.75;;;6.50;90.30;;;;;;5097091;28;20043;-63
2023/03/13 00:48:06;;;;;;;9.40;3.67;;;6.50;90.30;;;;;;5097666;28;20047;-63
2023/03/13 00:50:39;;;;;;;10.23;3.53;;;6.50;90.20;;;;;;5097035;28;20051;-59
2023/03/13 00:53:12;;;;;;;10.75;4.30;;;6.50;90.10;;;;;;5096310;28;20119;-59
2023/03/13 00:55:54;;;;;;;14.23;3.83;;;6.50;90.10;;;;;;5078687;28;20097;-59
2023/03/13 00:58:31;;;;;;;10.02;3.20;;;6.60;90.00;;;;;;5097306;28;20486;-60
2023/03/13 01:01:08;;;;;;;13.60;3.88;;;6.50;90.00;;;;;;5095721;28;20043;-67
2023/03/13 01:03:44;;;;;;;10.43;3.92;;;6.60;90.10;;;;;;5096298;28;20044;-67
2023/03/13 01:06:19;;;;;;;9.27;2.95;;;6.60;90.00;;;;;;5094820;28;20479;-63
2023/03/13 01:08:55;;;;;;;8.32;3.13;;;6.60;90.00;;;;;;5097340;28;20154;-63
2023/03/13 01:11:32;;;;;;;10.00;3.40;;;6.60;89.90;;;;;;5096586;28;20058;-63
2023/03/13 01:14:08;;;;;;;10.35;3.10;;;6.60;90.10;;;;;;5095986;28;20508;-63
2023/03/13 01:16:42;;;;;;;10.57;3.88;;;6.60;89.90;;;;;;5095969;28;20107;-63
2023/03/13 01:19:23;;;;;;;8.55;2.72;;;6.60;89.90;;;;;;5096025;28;20040;-63
2023/03/13 01:22:03;;;;;;;8.15;2.97;;;6.60;90.00;;;;;;5055980;28;20044;-59
2023/03/13 01:24:37;;;;;;;9.55;2.55;;;6.70;90.30;;;;;;5071289;28;20048;-60
2023/03/13 01:27:11;;;;;;;13.23;2.72;;;6.70;90.30;;;;;;5062838;28;20485;-58
2023/03/13 01:29:45;;;;;;;10.27;3.05;;;6.70;90.00;;;;;;5079603;28;20054;-59
2023/03/13 01:32:18;;;;;;;11.77;3.03;;;6.70;90.20;;;;;;5078991;28;20434;-70
2023/03/13 01:34:51;;;;;;;9.32;2.00;;;6.70;90.30;;;;;;5078563;28;20048;-69
2023/03/13 01:37:25;;;;;;;8.93;2.30;;;6.70;90.20;;;;;;5070457;28;20510;-61
2023/03/13 01:39:59;;;;;;;9.38;2.17;;;6.80;90.00;;;;;;5072398;28;20487;-60
2023/03/13 01:42:27;;;;;;;7.85;2.42;;;6.80;90.10;;;;;;5070586;28;20044;-60
2023/03/13 01:45:01;;;;;;;9.23;2.50;;;6.80;90.10;;;;;;5062492;28;20442;-61
2023/03/13 01:47:34;;;;;;;6.78;2.00;;;6.80;90.00;;;;;;5076609;28;20059;-63
2023/03/13 01:50:11;;;;;;;10.48;2.28;;;6.80;90.00;;;;;;5081958;28;20049;-63
2023/03/13 01:52:51;;;;;;;13.77;2.88;;;6.90;90.00;;;;;;5078708;28;20478;-62
2023/03/13 01:55:29;;;;;;;11.00;2.40;;;6.90;90.10;;;;;;5065918;28;20055;-61
2023/03/13 01:58:04;;;;;;;8.35;1.90;;;7.00;90.40;;;;;;5076177;28;20056;-61
2023/03/13 02:00:38;;;;;;;10.65;2.08;;;7.00;90.30;;;;;;5074453;28;20063;-60
2023/03/13 02:03:14;;;;;;;10.23;2.17;;;7.10;90.20;;;;;;5053556;28;20105;-61
2023/03/13 02:05:50;;;;;;;8.07;1.73;;;7.10;90.10;;;;;;5051628;28;20139;-68
2023/03/13 02:08:27;;;;;;;8.40;2.30;;;7.20;90.10;;;;;;5057482;28;20041;-67
2023/03/13 02:11:09;;;;;;;7.68;2.47;;;7.30;90.10;;;;;;5059714;28;20044;-64
2023/03/13 02:13:44;;;;;;;10.32;2.17;;;7.40;90.00;;;;;;5072536;28;20071;-63
2023/03/13 02:16:19;;;;;;;10.63;2.35;;;7.40;89.90;;;;;;5074017;28;20486;-62
2023/03/13 02:18:59;;;;;;;10.35;2.03;;;7.50;89.80;;;;;;5091874;27;20051;-61
2023/03/13 02:21:48;;;;;;;10.10;2.00;;;7.40;89.90;;;;;;5091650;28;20117;-64
2023/03/13 02:24:31;;;;;;;8.57;2.20;;;7.50;89.80;;;;;;5076717;28;20055;-63
2023/03/13 02:27:06;;;;;;;8.05;1.70;;;7.50;89.70;;;;;;5079986;28;20482;-66
2023/03/13 02:29:42;;;;;;;11.02;2.65;;;7.60;89.80;;;;;;5067751;28;20051;-67
2023/03/13 02:32:15;;;;;;;10.25;1.73;;;7.60;89.80;;;;;;5075136;28;20515;-69
2023/03/13 02:34:53;;;;;;;9.30;1.60;;;7.60;89.70;;;;;;5086206;28;20440;-69
2023/03/13 02:37:29;;;;;;;6.78;1.75;;;7.60;89.60;;;;;;5072361;28;20047;-61
2023/03/13 02:40:09;;;;;;;6.85;1.70;;;7.60;89.60;;;;;;5075871;28;20096;-62
2023/03/13 02:42:45;;;;;;;7.78;1.30;;;7.50;89.70;;;;;;5046398;28;20047;-62
2023/03/13 02:45:19;;;;;;;7.22;1.70;;;7.50;89.80;;;;;;5082778;28;20102;-61
2023/03/13 02:47:52;;;;;;;9.13;1.70;;;7.50;89.80;;;;;;5064451;28;20052;-60
2023/03/13 02:50:25;;;;;;;8.80;1.45;;;7.50;90.00;;;;;;5074536;28;20066;-68
2023/03/13 02:53:02;;;;;;;8.32;1.45;;;7.40;90.00;;;;;;5071166;28;20494;-68
2023/03/13 02:55:39;;;;;;;7.07;1.55;;;7.50;90.00;;;;;;5091618;28;20048;-61
2023/03/13 02:58:13;;;;;;;8.77;2.08;;;7.50;90.20;;;;;;5062341;28;20055;-58
2023/03/13 03:00:47;;;;;;;10.18;1.83;;;7.60;90.40;;;;;;5071023;28;20089;-61
2023/03/13 03:03:20;;;;;;;11.75;1.83;;;7.70;90.50;;;;;;5069435;28;20701;-60
2023/03/13 03:05:54;;;;;;;8.73;1.75;;;7.70;90.50;;;;;;5069960;28;20053;-60
2023/03/13 03:08:28;;;;;;;7.32;1.55;;;7.80;90.70;;;;;;5071012;28;20048;-60
2023/03/13 03:11:02;;;;;;;8.63;1.42;;;7.70;90.80;;;;;;5081204;28;20040;-60
2023/03/13 03:13:36;;;;;;;9.75;1.67;;;7.70;90.90;;;;;;5062166;28;20117;-60
2023/03/13 03:16:14;;;;;;;7.70;1.45;;;7.70;91.00;;;;;;5040014;28;20525;-65
2023/03/13 03:18:47;;;;;;;7.63;1.55;;;7.70;91.30;;;;;;5055854;28;20131;-65
2023/03/13 03:21:27;;;;;;;10.40;1.80;;;7.70;91.40;;;;;;5050830;28;20042;-61
2023/03/13 03:24:00;;;;;;;6.47;1.77;;;7.70;91.40;;;;;;5092242;28;20375;-61
2023/03/13 03:26:33;;;;;;;5.13;1.50;;;7.70;91.50;;;;;;5068369;28;20067;-66
2023/03/13 03:29:14;;;;;;;8.55;2.40;;;7.70;91.60;;;;;;5073560;28;20044;-67
2023/03/13 03:31:51;;;;;;;7.07;1.73;;;7.60;91.60;;;;;;5073294;28;20410;-58
2023/03/13 03:34:25;;;;;;;7.85;1.30;;;7.60;91.70;;;;;;5074249;28;20044;-60
2023/03/13 03:36:59;;;;;;;8.85;1.95;;;7.70;91.70;;;;;;5074722;28;20062;-62
2023/03/13 03:39:32;;;;;;;6.10;1.45;;;7.60;91.60;;;;;;5072875;28;20052;-62
2023/03/13 03:42:00;;;;;;;7.03;1.80;;;7.60;91.60;;;;;;5071958;28;20056;-62
2023/03/13 03:44:34;;;;;;;9.30;1.77;;;7.60;91.50;;;;;;5080240;28;20048;-63
2023/03/13 03:47:09;;;;;;;6.18;2.13;;;7.60;91.50;;;;;;5071592;28;20048;-61
2023/03/13 03:49:46;;;;;;;6.68;1.50;;;7.60;91.40;;;;;;5071991;28;20507;-62
2023/03/13 03:52:20;;;;;;;6.25;1.60;;;7.60;91.40;;;;;;5073883;28;20187;-62
2023/03/13 03:54:53;;;;;;;8.50;1.50;;;7.60;91.50;;;;;;5061841;28;20050;-64
2023/03/13 03:57:26;;;;;;;7.47;1.50;;;7.60;91.50;;;;;;5088054;28;20574;-62
2023/03/13 04:00:01;;;;;;;7.07;2.20;;;7.60;91.50;;;;;;5070844;28;20037;-62
2023/03/13 04:02:40;;;;;;;6.78;2.88;;;7.60;91.60;;;;;;5092795;28;20494;-58
2023/03/13 04:05:14;;;;;;;6.00;1.80;;;7.60;91.60;;;;;;5071762;28;20093;-59
2023/03/13 04:07:48;;;;;;;9.80;1.52;;;7.60;91.70;;;;;;5076484;28;20181;-59
2023/03/13 04:10:22;;;;;;;6.93;1.73;;;7.60;91.60;;;;;;5094425;28;20089;-65
2023/03/13 04:12:55;;;;;;;6.30;1.27;;;7.60;91.60;;;;;;5070451;28;20058;-65
2023/03/13 04:15:29;;;;;;;8.43;1.50;;;7.60;91.60;;;;;;5069410;28;20047;-61
2023/03/13 04:18:03;;;;;;;8.27;1.70;;;7.60;91.60;;;;;;5089622;28;20123;-61
2023/03/13 04:20:44;;;;;;;5.22;1.60;;;7.70;91.70;;;;;;5066781;28;20107;-62
2023/03/13 04:23:18;;;;;;;7.72;1.73;;;7.60;91.60;;;;;;5054003;28;20245;-61
2023/03/13 04:25:52;;;;;;;6.05;1.17;;;7.70;91.70;;;;;;5036012;28;20069;-62
2023/03/13 04:28:25;;;;;;;6.95;1.95;;;7.70;91.90;;;;;;5039604;28;20044;-62
2023/03/13 04:31:00;;;;;;;7.43;2.10;;;7.70;92.00;;;;;;5032491;28;20049;-69
2023/03/13 04:34:03;;;;;;;6.47;1.52;;;7.70;92.00;;;;;;5059430;28;20798;-68
2023/03/13 04:36:49;;;;;;;7.32;1.88;;;7.70;92.20;;;;;;5041832;28;20052;-65
2023/03/13 04:39:41;;;;;;;5.78;1.65;;;7.70;92.20;;;;;;5059806;28;20078;-65
2023/03/13 04:42:34;;;;;;;7.93;1.60;;;7.70;92.20;;;;;;5053926;28;20102;-63
2023/03/13 04:45:35;;;;;;;7.85;1.50;;;7.70;92.50;;;;;;5027400;28;20106;-63
2023/03/13 04:48:22;;;;;;;7.15;1.52;;;7.70;92.70;;;;;;5039535;28;20130;-63
2023/03/13 04:51:02;;;;;;;6.43;1.70;;;7.80;93.00;;;;;;5051842;28;20083;-59
2023/03/13 04:53:48;;;;;;;8.57;1.60;;;7.80;93.00;;;;;;5075085;28;20138;-59
2023/03/13 04:56:41;;;;;;;5.20;1.27;;;7.90;92.90;;;;;;5027893;28;20135;-59
2023/03/13 04:59:26;;;;;;;7.22;1.73;;;7.90;93.10;;;;;;5075218;28;20093;-59
2023/03/13 05:02:15;;;;;;;4.30;1.23;;;7.90;93.40;;;;;;5076233;28;20052;-62
2023/03/13 05:05:09;;;;;;;5.90;1.13;;;8.00;93.30;;;;;;5075024;28;20059;-62
2023/03/13 05:08:13;;;;;;;3.67;0.90;;;8.00;93.50;;;;;;5067795;28;20128;-62
2023/03/13 05:10:57;;;;;;;7.65;1.17;;;8.00;93.40;;;;;;5056557;28;20254;-62
2023/03/13 05:13:46;;;;;;;8.02;1.20;;;8.00;93.50;;;;;;5060078;28;20052;-62
2023/03/13 05:16:43;;;;;;;5.47;1.35;;;8.00;93.60;;;;;;5049364;28;20044;-63
2023/03/13 05:19:46;;;;;;;4.57;1.00;;;8.10;93.60;;;;;;5051297;27;20057;-62
2023/03/13 05:22:48;;;;;;;5.05;1.30;;;8.10;93.70;;;;;;5040987;28;20155;-64
2023/03/13 05:25:41;;;;;;;8.15;1.60;;;8.10;93.60;;;;;;5093512;28;20070;-63
2023/03/13 05:28:22;;;;;;;3.55;1.08;;;8.10;93.70;;;;;;5085052;28;20044;-62
2023/03/13 05:31:09;;;;;;;7.15;1.30;;;8.20;93.80;;;;;;5094511;28;20121;-62
2023/03/13 05:33:53;;;;;;;3.25;1.08;;;8.20;93.80;;;;;;5093366;28;20047;-61
2023/03/13 05:36:45;;;;;;;6.30;1.17;;;8.30;93.90;;;;;;5092107;28;20170;-62
2023/03/13 05:39:49;;;;;;;3.97;1.20;;;8.30;94.00;;;;;;5012902;28;20045;-62
2023/03/13 05:42:48;;;;;;;;;;;8.40;94.00;;;;;;5042674;28;20346;-70
2023/03/13 05:45:40;;;;;;;4.13;1.10;;;8.40;94.00;;;;;;5091645;28;19926;-68
2023/03/13 05:48:30;;;;;;;;;;;8.50;94.10;;;;;;5076839;28;20075;-68
2023/03/13 05:51:12;;;;;;;4.38;1.23;;;8.50;94.10;;;;;;5077781;28;19920;-68
2023/03/13 05:53:56;;;;;;;6.72;1.23;;;8.50;94.10;;;;;;5076007;28;20078;-68
2023/03/13 05:56:51;;;;;;;4.68;1.35;;;8.60;94.20;;;;;;5086569;28;20067;-68
2023/03/13 05:59:44;;;;;;;4.63;1.10;;;8.60;94.10;;;;;;5073910;28;20047;-69
2023/03/13 06:02:38;;;;;;;3.92;1.42;;;8.60;94.20;;;;;;5092193;28;20058;-62
2023/03/13 06:05:16;;;;;;;4.57;1.08;;;8.60;94.20;;;;;;5076055;28;20044;-61
2023/03/13 06:07:50;;;;;;;5.15;1.33;;;8.60;94.20;;;;;;5087459;28;20063;-62
2023/03/13 06:10:23;;;;;;;3.60;1.63;;;8.60;94.20;;;;;;5090304;28;20097;-61
2023/03/13 06:12:57;;;;;;;2.55;0.98;;;8.60;94.20;;;;;;5083788;28;20039;-60
2023/03/13 06:15:34;;;;;;;5.88;1.13;;;8.70;94.30;;;;;;5072073;28;20044;-60
2023/03/13 06:18:18;;;;;;;2.33;1.08;;;8.70;94.30;;;;;;5094155;28;20048;-59
2023/03/13 06:21:00;;;;;;;4.85;1.20;;;8.70;94.30;;;;;;5068120;28;21223;-60
2023/03/13 06:23:33;;;;;;;4.18;1.27;;;8.70;94.30;;;;;;5052734;28;20043;-59
2023/03/13 06:26:06;;;;;;;3.90;1.33;;;8.70;94.30;;;;;;5060842;28;20063;-61
2023/03/13 06:28:34;;;;;;;4.80;1.40;;;8.70;94.40;;;;;;5071400;28;20070;-61
2023/03/13 06:31:08;;;;;;;3.20;1.40;;;8.70;94.40;;;;;;5049410;28;20114;-61
2023/03/13 06:33:42;;;;;;;3.33;1.23;;;8.80;94.40;;;;;;5064401;28;20455;-60
2023/03/13 06:36:15;;;;;;;5.72;1.52;;;8.80;94.50;;;;;;5070067;28;20058;-61
2023/03/13 06:38:48;;;;;;;2.92;1.50;;;8.80;94.50;;;;;;5066592;28;20049;-60
2023/03/13 06:41:21;;;;;;;4.07;1.60;;;8.90;94.50;;;;;;5057050;28;20048;-60
2023/03/13 06:43:57;;;;;;;3.67;1.73;;;8.90;94.50;;;;;;5047826;28;20041;-59
2023/03/13 06:46:24;;;;;;;5.65;1.80;;;8.90;94.50;;;;;;5052258;28;20047;-60
2023/03/13 06:48:59;;;;;;;5.32;2.05;;;9.00;94.50;;;;;;5063062;28;20051;-60
2023/03/13 06:51:32;;;;;;;5.68;1.92;;;9.00;94.60;;;;;;5062789;28;20040;-60
2023/03/13 06:54:07;;;;;;;6.22;2.00;;;9.10;94.60;;;;;;5063280;28;20040;-61
2023/03/13 06:56:40;;;;;;;5.63;2.10;;;9.20;94.60;;;;;;5056357;28;20052;-60
2023/03/13 06:59:14;;;;;;;7.30;2.22;;;9.20;94.60;;;;;;5068630;28;20067;-61
2023/03/13 07:01:48;;;;;;;5.22;2.10;;;9.20;94.60;;;;;;5060772;28;20056;-60
2023/03/13 07:04:21;;;;;;;7.65;2.58;;;9.20;94.60;;;;;;5068985;28;20458;-61
2023/03/13 07:06:54;;;;;;;9.43;2.83;;;9.20;94.50;;;;;;5061710;28;20048;-60
2023/03/13 07:09:27;;;;;;;7.32;2.70;;;9.20;94.50;;;;;;5059460;28;20053;-60
2023/03/13 07:12:02;;;;;;;8.77;2.55;;;9.20;94.50;;;;;;5066799;28;20132;-61
2023/03/13 07:14:36;;;;;;;7.75;1.95;;;9.30;94.60;;;;;;5070962;28;20067;-60
2023/03/13 07:17:10;;;;;;;6.85;2.30;;;9.30;94.60;;;;;;5063256;28;20048;-61
2023/03/13 07:19:49;;;;;;;6.85;2.50;;;9.30;94.60;;;;;;5053749;28;20049;-60
2023/03/13 07:22:23;;;;;;;6.80;1.92;;;9.40;94.60;;;;;;5070432;28;20040;-60
2023/03/13 07:24:56;;;;;;;5.18;1.60;;;9.40;94.70;;;;;;5072489;28;20052;-60
2023/03/13 07:27:23;;;;;;;5.50;1.77;;;9.50;94.70;;;;;;5070158;28;20040;-61
2023/03/13 07:29:58;;;;;;;4.20;1.33;;;9.50;94.60;;;;;;5070410;28;20048;-60
2023/03/13 07:32:31;;;;;;;2.35;1.20;;;9.60;94.40;;;;;;5070270;28;20040;-59
2023/03/13 07:35:06;;;;;;;3.55;1.02;;;9.70;94.40;;;;;;5067868;28;20101;-60
2023/03/13 07:37:39;;;;;;;2.03;0.77;;;9.70;94.20;;;;;;5050565;28;20127;-61
2023/03/13 07:40:12;;;;;;;4.85;2.03;;;9.70;94.20;;;;;;5045410;28;20115;-61
2023/03/13 07:42:46;;;;;;;2.38;0.77;;;9.70;94.10;;;;;;5062792;28;20532;-60
2023/03/13 07:45:20;;;;;;;3.10;0.75;;;9.80;94.10;;;;;;5066741;28;20594;-60
2023/03/13 07:47:54;;;;;;;3.08;1.02;;;9.80;94.00;;;;;;5065705;28;20063;-62
2023/03/13 07:50:27;;;;;;;4.03;1.00;;;9.80;93.90;;;;;;5058569;28;20538;-61
2023/03/13 07:53:00;;;;;;;2.25;0.70;;;9.80;94.00;;;;;;5055758;28;20238;-62
2023/03/13 07:55:33;;;;;;;2.05;0.82;;;9.90;94.00;;;;;;5070798;28;20502;-60
2023/03/13 07:58:06;;;;;;;2.47;1.00;;;9.90;94.00;;;;;;5054787;28;20084;-61
2023/03/13 08:00:40;;;;;;;2.53;0.95;;;9.90;94.00;;;;;;5052854;28;20091;-60
2023/03/13 08:03:14;;;;;;;2.88;1.00;;;9.90;94.00;;;;;;5057185;28;20659;-60
2023/03/13 08:05:41;;;;;;;3.33;1.17;;;9.90;94.00;;;;;;5068200;28;20069;-61
2023/03/13 08:08:14;;;;;;;2.03;0.80;;;9.90;94.00;;;;;;5072362;28;20045;-61
2023/03/13 08:10:47;;;;;;;2.45;0.93;;;9.90;94.00;;;;;;5074325;28;20127;-61
2023/03/13 08:13:20;;;;;;;2.58;0.95;;;9.90;94.00;;;;;;5077110;28;20505;-60
2023/03/13 08:16:02;;;;;;;3.55;1.02;;;10.00;94.00;;;;;;5070808;28;20079;-60
2023/03/13 08:18:36;;;;;;;2.40;0.90;;;10.00;93.90;;;;;;5069179;28;20141;-60
2023/03/13 08:21:19;;;;;;;2.33;0.93;;;10.00;93.80;;;;;;5085067;28;20607;-60
2023/03/13 08:24:01;;;;;;;2.42;0.70;;;10.10;93.80;;;;;;5093175;28;20161;-60
2023/03/13 08:26:36;;;;;;;2.70;0.77;;;10.10;93.60;;;;;;5074566;28;20046;-59
2023/03/13 08:29:11;;;;;;;1.85;0.70;;;10.20;93.30;;;;;;5076649;28;20044;-60
2023/03/13 08:31:47;;;;;;;2.85;0.90;;;10.30;93.20;;;;;;5077700;28;20059;-61
2023/03/13 08:34:20;;;;;;;1.38;0.80;;;10.30;93.10;;;;;;5086748;28;20054;-60
2023/03/13 08:36:53;;;;;;;1.63;0.70;;;10.30;93.10;;;;;;5074149;28;20044;-60
2023/03/13 08:39:26;;;;;;;2.38;1.00;;;10.30;93.20;;;;;;5087264;28;20479;-60
2023/03/13 08:41:59;;;;;;;2.58;0.90;;;10.40;93.00;;;;;;5081566;28;20500;-59
2023/03/13 08:44:32;;;;;;;3.13;1.05;;;10.40;92.90;;;;;;5074503;28;20055;-61
2023/03/13 08:47:08;;;;;;;2.10;1.00;;;10.40;93.00;;;;;;5093368;28;20087;-61
2023/03/13 08:49:41;;;;;;;2.38;1.02;;;10.50;92.90;;;;;;5082633;28;20060;-62
2023/03/13 08:52:14;;;;;;;3.15;1.25;;;10.50;92.80;;;;;;5090363;28;20519;-64
2023/03/13 08:54:48;;;;;;;2.20;1.00;;;10.50;92.80;;;;;;5077351;28;20452;-62
2023/03/13 08:57:22;;;;;;;3.25;1.58;;;10.60;92.80;;;;;;5077213;28;20509;-62
2023/03/13 08:59:55;;;;;;;3.63;1.90;;;10.60;92.70;;;;;;5075241;28;20051;-61
2023/03/13 09:02:30;;;;;;;2.97;1.20;;;10.70;92.80;;;;;;5076881;28;20053;-63
2023/03/13 09:05:04;;;;;;;4.60;1.35;;;10.70;92.80;;;;;;5086455;28;20044;-62
2023/03/13 09:07:37;;;;;;;1.80;0.82;;;10.70;92.70;;;;;;5088716;28;20116;-63
2023/03/13 09:10:11;;;;;;;3.50;1.38;;;10.80;92.70;;;;;;5084050;28;20064;-62
2023/03/13 09:12:46;;;;;;;3.40;0.95;;;10.80;92.70;;;;;;5087962;28;20044;-63
2023/03/13 09:15:19;;;;;;;2.13;1.10;;;10.80;92.70;;;;;;5081794;28;20074;-63
2023/03/13 09:17:54;;;;;;;2.03;0.93;;;10.80;92.60;;;;;;5073937;28;20049;-62
2023/03/13 09:20:34;;;;;;;2.25;1.10;;;10.80;92.70;;;;;;5071829;28;20036;-63
2023/03/13 09:23:13;;;;;;;2.47;1.20;;;10.90;92.70;;;;;;5091395;28;20147;-61
2023/03/13 09:25:48;;;;;;;2.67;1.20;;;10.90;92.70;;;;;;5085866;28;20796;-62
2023/03/13 09:28:22;;;;;;;3.05;1.20;;;10.90;92.60;;;;;;5091014;28;20457;-62
2023/03/13 09:30:55;;;;;;;2.00;1.20;;;11.00;92.50;;;;;;5094592;28;20841;-62
2023/03/13 09:33:31;;;;;;;2.97;1.13;;;11.00;92.50;;;;;;5097193;28;20051;-62
2023/03/13 09:36:05;;;;;;;3.38;1.30;;;11.00;92.60;;;;;;5081450;28;20051;-62
2023/03/13 09:38:38;;;;;;;3.63;1.85;;;11.00;92.60;;;;;;5093833;28;20044;-62
2023/03/13 09:41:22;;;;;;;2.42;1.15;;;11.00;92.50;;;;;;5074737;28;20269;-62
2023/03/13 09:44:02;;;;;;;3.63;1.30;;;11.00;92.60;;;;;;5053258;28;20222;-61
2023/03/13 09:46:40;;;;;;;1.17;0.85;;;11.00;92.70;;;;;;5085302;28;20054;-61
2023/03/13 09:49:28;;;;;;;2.33;1.10;;;11.00;92.80;;;;;;5066003;28;20048;-60
2023/03/13 09:52:15;;;;;;;3.03;1.15;;;11.00;92.80;;;;;;5081439;28;20064;-59
2023/03/13 09:54:52;;;;;;;2.70;1.10;;;11.10;92.80;;;;;;5095585;28;20542;-61
2023/03/13 09:57:33;;;;;;;2.50;1.05;;;11.10;92.70;;;;;;5082368;28;20040;-61
2023/03/13 10:00:13;;;;;;;5.75;1.98;;;11.20;92.50;;;;;;5077814;28;20048;-61
2023/03/13 10:02:51;;;;;;;4.03;1.60;;;11.20;92.30;;;;;;5073364;28;20462;-60
2023/03/13 10:05:27;;;;;;;3.60;1.27;;;11.40;92.20;;;;;;5079012;28;20487;-63
2023/03/13 10:08:12;;;;;;;3.53;1.52;;;11.40;91.80;;;;;;5073720;28;20074;-63
2023/03/13 10:10:50;;;;;;;2.03;1.10;;;11.60;91.60;;;;;;5075349;28;20108;-67
2023/03/13 10:13:31;;;;;;;3.38;1.20;;;11.70;91.20;;;;;;5067036;28;20048;-68
2023/03/13 10:16:08;;;;;;;2.05;1.08;;;11.70;91.00;;;;;;5080501;28;20089;-62
2023/03/13 10:18:47;;;;;;;3.92;1.38;;;11.80;90.90;;;;;;5072119;28;20044;-62
2023/03/13 10:21:34;;;;;;;3.67;1.23;;;11.80;90.80;;;;;;5072487;27;20048;-63
2023/03/13 10:24:16;;;;;;;3.28;1.20;;;11.90;90.70;;;;;;5088717;28;20052;-63
2023/03/13 10:26:49;;;;;;;4.45;1.50;;;11.90;90.60;;;;;;5087323;28;20063;-65
2023/03/13 10:29:24;;;;;;;3.85;1.30;;;11.90;90.60;;;;;;5070964;28;20782;-63
2023/03/13 10:31:58;;;;;;;4.32;1.40;;;11.90;90.50;;;;;;5071149;28;20044;-62
2023/03/13 10:34:50;;;;;;;2.40;1.38;;;11.90;90.60;;;;;;5072632;28;20127;-62
2023/03/13 10:37:28;;;;;;;2.63;1.45;;;11.90;90.40;;;;;;5086323;28;20471;-64
2023/03/13 10:40:14;;;;;;;4.45;1.30;;;11.90;90.40;;;;;;5084946;28;20466;-65
2023/03/13 10:42:47;;;;;;;3.25;1.70;;;11.80;90.40;;;;;;5079606;28;20478;-66
2023/03/13 10:45:22;;;;;;;3.13;1.30;;;11.80;90.40;;;;;;5092531;28;20565;-61
2023/03/13 10:47:59;;;;;;;3.53;1.20;;;11.90;90.30;;;;;;5086247;28;20042;-61
2023/03/13 10:50:35;;;;;;;3.15;1.50;;;11.90;90.20;;;;;;5068104;28;20101;-62
2023/03/13 10:53:22;;;;;;;2.63;1.50;;;11.90;90.10;;;;;;5084605;28;20043;-60
2023/03/13 10:55:57;;;;;;;3.78;1.88;;;11.90;89.90;;;;;;5072278;28;20052;-57
2023/03/13 10:58:33;;;;;;;2.70;1.30;;;12.00;89.60;;;;;;5085892;28;20048;-58
2023/03/13 11:01:21;;;;;;;4.63;1.70;;;12.00;89.60;;;;;;5079266;28;20043;-58
2023/03/13 11:03:56;;;;;;;3.70;1.70;;;12.10;89.50;;;;;;5061779;28;20044;-60
2023/03/13 11:06:31;;;;;;;5.30;1.60;;;12.10;89.30;;;;;;5081605;28;20058;-59
2023/03/13 11:09:12;;;;;;;3.47;1.67;;;12.10;89.40;;;;;;5069588;28;20090;-59
2023/03/13 11:11:49;;;;;;;4.57;1.65;;;12.10;89.30;;;;;;5079128;28;20041;-58
2023/03/13 11:14:24;;;;;;;4.05;1.65;;;12.00;89.30;;;;;;5080533;28;20627;-59
2023/03/13 11:17:09;;;;;;;5.40;2.03;;;12.10;89.00;;;;;;5068705;28;20052;-59
2023/03/13 11:20:17;;;;;;;3.95;1.55;;;12.20;89.00;;;;;;5075323;28;20647;-59
2023/03/13 11:23:00;;;;;;;4.10;1.42;;;12.20;88.80;;;;;;5069009;28;20053;-58
2023/03/13 11:25:43;;;;;;;3.13;1.65;;;12.30;88.40;;;;;;5081695;28;20449;-60
2023/03/13 11:28:36;;;;;;;3.30;1.67;;;12.40;88.40;;;;;;5059810;28;20083;-59
2023/03/13 11:31:14;;;;;;;5.03;1.73;;;12.30;88.30;;;;;;5061122;28;20493;-59
2023/03/13 11:33:56;;;;;;;4.15;1.33;;;12.40;88.30;;;;;;5074981;28;20407;-59
2023/03/13 11:36:34;;;;;;;2.75;1.45;;;12.40;88.20;;;;;;5071208;28;20534;-61
2023/03/13 11:39:28;;;;;;;4.97;1.92;;;12.50;87.90;;;;;;5060912;28;20944;-62
2023/03/13 11:42:10;;;;;;;2.55;1.50;;;12.60;88.00;;;;;;5064946;28;20040;-63
2023/03/13 11:44:53;;;;;;;5.13;1.85;;;12.60;88.00;;;;;;5094318;28;20043;-62
2023/03/13 11:47:52;;;;;;;6.22;2.38;;;12.70;87.50;;;;;;5091344;28;20054;-63
2023/03/13 11:50:35;;;;;;;4.20;1.50;;;12.80;87.40;;;;;;5073941;28;20535;-63
2023/03/13 11:53:33;;;;;;;4.18;1.70;;;12.80;87.30;;;;;;5071585;28;20044;-62
2023/03/13 11:56:15;;;;;;;4.53;1.70;;;12.70;87.30;;;;;;5066947;28;20037;-63
2023/03/13 11:59:05;;;;;;;3.72;1.50;;;12.70;87.10;;;;;;5063882;28;20121;-63
2023/03/13 12:01:42;;;;;;;3.25;1.55;;;12.70;87.50;;;;;;5072056;28;20140;-62
2023/03/13 12:04:22;;;;;;;3.25;1.70;;;12.70;87.40;;;;;;5079734;28;20089;-62
2023/03/13 12:07:02;;;;;;;2.30;1.40;;;12.70;87.30;;;;;;5073057;28;20110;-62
2023/03/13 12:09:43;;;;;;;3.90;1.65;;;12.70;87.40;;;;;;5069659;28;20068;-62
2023/03/13 12:12:21;;;;;;;2.55;1.48;;;12.80;87.20;;;;;;5063695;28;20048;-62
2023/03/13 12:14:59;;;;;;;4.28;1.80;;;12.70;87.10;;;;;;5060253;28;20060;-63
2023/03/13 12:17:36;;;;;;;3.53;1.60;;;12.70;87.10;;;;;;5065984;28;20044;-62
2023/03/13 12:20:18;;;;;;;3.17;1.38;;;12.70;86.70;;;;;;5068817;28;20041;-63
2023/03/13 12:23:11;;;;;;;4.82;1.80;;;12.80;86.90;;;;;;5064267;28;20048;-63
2023/03/13 12:25:48;;;;;;;3.75;1.55;;;12.80;86.90;;;;;;5085265;28;20097;-61
2023/03/13 12:28:30;;;;;;;3.60;1.60;;;12.80;86.90;;;;;;5071574;28;20047;-60
2023/03/13 12:31:12;;;;;;;2.80;1.50;;;12.80;86.70;;;;;;5091656;28;20138;-61
2023/03/13 12:33:53;;;;;;;3.25;1.30;;;12.80;86.80;;;;;;5092434;28;20130;-62
2023/03/13 12:36:33;;;;;;;3.38;1.83;;;12.90;86.50;;;;;;5093324;28;20043;-62
2023/03/13 12:39:17;;;;;;;3.47;1.40;;;12.90;86.60;;;;;;5072230;28;20106;-63
2023/03/13 12:42:06;;;;;;;6.38;1.95;;;13.00;86.50;;;;;;5066274;28;20077;-62
2023/03/13 12:44:40;;;;;;;4.47;1.60;;;12.90;86.50;;;;;;5069331;28;20544;-62
2023/03/13 12:47:20;;;;;;;3.80;1.50;;;13.00;86.40;;;;;;5072717;28;20513;-59
2023/03/13 12:50:23;;;;;;;2.67;1.30;;;12.90;86.20;;;;;;5066977;28;20076;-59
2023/03/13 12:53:23;;;;;;;3.22;1.77;;;12.90;86.40;;;;;;5072019;28;20049;-59
2023/03/13 12:56:30;;;;;;;4.45;1.48;;;12.90;86.40;;;;;;5074622;28;20053;-59
2023/03/13 12:59:06;;;;;;;5.80;1.77;;;12.90;86.00;;;;;;5084708;28;20063;-58
2023/03/13 13:01:42;;;;;;;5.57;2.20;;;12.90;86.40;;;;;;5094493;28;20478;-58
2023/03/13 13:04:19;;;;;;;4.18;2.15;;;13.00;85.60;;;;;;5092842;28;20036;-59
2023/03/13 13:06:56;;;;;;;4.93;2.03;;;13.10;85.80;;;;;;5092442;28;20054;-59
2023/03/13 13:09:31;;;;;;;4.82;1.50;;;13.20;85.80;;;;;;5081073;28;20044;-59
2023/03/13 13:12:19;;;;;;;3.22;1.30;;;13.20;85.30;;;;;;5085352;28;20055;-58
2023/03/13 13:15:12;;;;;;;4.57;1.70;;;13.20;85.50;;;;;;5087660;28;20044;-59
2023/03/13 13:18:12;;;;;;;3.88;2.13;;;13.20;86.00;;;;;;5093155;28;20048;-60
2023/03/13 13:20:55;;;;;;;5.05;1.92;;;13.20;85.80;;;;;;5086296;28;20056;-59
2023/03/13 13:23:35;;;;;;;4.90;2.00;;;13.10;86.30;;;;;;5066211;28;20896;-59
2023/03/13 13:26:45;;;;;;;5.03;2.10;;;13.00;86.50;;;;;;5069705;28;20094;-65
2023/03/13 13:29:58;;;;;;;4.10;1.95;;;12.90;86.70;;;;;;5059231;28;20040;-66
2023/03/13 13:32:35;;;;;;;4.05;2.00;;;12.90;86.60;;;;;;5046264;28;20048;-65
2023/03/13 13:35:32;;;;;;;5.57;2.05;;;12.90;87.10;;;;;;5068923;28;20449;-65
2023/03/13 13:38:35;;;;;;;4.93;1.85;;;12.90;87.00;;;;;;5074649;28;20068;-59
2023/03/13 13:41:32;;;;;;;4.35;1.80;;;12.80;87.10;;;;;;5073276;28;20040;-58
2023/03/13 13:44:27;;;;;;;3.92;1.70;;;12.70;87.10;;;;;;5067542;28;20162;-59
2023/03/13 13:47:01;;;;;;;4.03;1.90;;;12.70;87.20;;;;;;5079163;28;20058;-63
2023/03/13 13:49:37;;;;;;;5.75;2.40;;;12.80;87.30;;;;;;5092416;28;20051;-63
2023/03/13 13:52:38;;;;;;;6.03;2.85;;;12.80;87.30;;;;;;5086687;28;20127;-62
2023/03/13 13:55:41;;;;;;;7.47;3.55;;;12.90;87.30;;;;;;5094740;28;20504;-61
2023/03/13 13:58:20;;;;;;;6.97;2.80;;;12.90;86.80;;;;;;5085936;28;20126;-60